Time;durP1;ratioP1;P1;durP2;ratioP2;P2;SDS_P1;SDS_P2;PMS_P1;PMS_P2;Temp;Humidity;BMP_temperature;BMP_pressure;BME280_temperature;BME280_humidity;BME280_pressure;Samples;Min_cycle;Max_cycle;Signal;HPM_P1;HPM_P2
2022/12/17 13:06:48;;;;;;;70.85;26.40;;;;;;;-0.81;98.28;102535.19;5049662;28;20481;-75
2022/12/17 13:09:13;;;;;;;76.63;26.02;;;;;;;-0.76;98.23;102529.84;5045437;28;20085;-75
2022/12/17 13:11:39;;;;;;;72.57;25.15;;;;;;;-0.74;98.01;102536.13;5034937;28;20033;-75
2022/12/17 13:14:14;;;;;;;73.25;26.25;;;;;;;-0.73;97.48;102532.53;5029143;28;20208;-76
2022/12/17 13:16:48;;;;;;;74.22;25.98;;;;;;;-0.78;97.38;102542.34;5027965;28;20144;-76
2022/12/17 13:19:19;;;;;;;84.25;27.42;;;;;;;-0.84;96.98;102539.63;5030071;28;20340;-76
2022/12/17 13:21:44;;;;;;;76.85;25.90;;;;;;;-0.91;96.99;102536.06;5038046;28;20053;-76
2022/12/17 13:24:11;;;;;;;76.22;27.42;;;;;;;-1.01;96.91;102546.75;5029855;28;20406;-76
2022/12/17 13:26:39;;;;;;;73.97;25.73;;;;;;;-1.14;97.02;102541.34;5043700;28;20044;-76
2022/12/17 13:29:28;;;;;;;72.43;24.88;;;;;;;-1.18;97.58;102538.66;5044264;28;20021;-76
2022/12/17 13:32:00;;;;;;;79.35;26.10;;;;;;;-1.22;97.82;102540.44;5076231;28;20124;-76
2022/12/17 13:34:36;;;;;;;69.82;26.10;;;;;;;-1.32;96.96;102531.50;5048687;28;20090;-76
2022/12/17 13:37:13;;;;;;;79.95;23.38;;;;;;;-1.37;97.36;102532.38;5048720;28;20051;-76
2022/12/17 13:39:55;;;;;;;64.82;23.95;;;;;;;-1.42;98.00;102516.34;5038604;28;20049;-76
2022/12/17 13:42:31;;;;;;;75.43;24.80;;;;;;;-1.43;98.06;102527.91;5033558;28;20038;-76
2022/12/17 13:44:58;;;;;;;84.38;26.63;;;;;;;-1.46;98.03;102530.53;5027889;28;20343;-76
2022/12/17 13:47:26;;;;;;;72.10;26.30;;;;;;;-1.46;98.33;102529.66;5029288;28;20018;-76
2022/12/17 13:49:57;;;;;;;80.93;26.13;;;;;;;-1.44;98.74;102525.25;5029446;28;20044;-76
2022/12/17 13:52:25;;;;;;;71.35;24.73;;;;;;;-1.41;98.67;102527.91;5029929;28;20435;-76
2022/12/17 13:54:52;;;;;;;73.05;23.92;;;;;;;-1.40;98.36;102538.59;5029705;28;20125;-76
2022/12/17 13:57:23;;;;;;;70.00;23.60;;;;;;;-1.38;98.40;102538.59;5016734;28;20021;-76
2022/12/17 14:00:01;;;;;;;65.18;21.70;;;;;;;-1.35;98.79;102531.50;5027804;28;20041;-76
2022/12/17 14:02:32;;;;;;;64.22;23.52;;;;;;;-1.31;98.97;102532.38;5033502;28;20091;-76
2022/12/17 14:05:00;;;;;;;71.15;24.27;;;;;;;-1.29;98.73;102541.31;5048969;28;20326;-76
2022/12/17 14:07:27;;;;;;;71.60;24.92;;;;;;;-1.31;98.34;102543.06;5048927;28;20099;-75
2022/12/17 14:09:53;;;;;;;78.18;25.10;;;;;;;-1.28;98.52;102532.41;5048825;28;20440;-75
2022/12/17 14:12:22;;;;;;;78.15;26.27;;;;;;;-1.28;98.20;102537.75;5043181;28;20033;-76
2022/12/17 14:14:58;;;;;;;71.18;24.10;;;;;;;-1.29;97.96;102536.84;5038918;28;20041;-76
2022/12/17 14:17:34;;;;;;;80.40;26.40;;;;;;;-1.31;98.15;102535.06;5039600;28;20560;-76
2022/12/17 14:20:07;;;;;;;79.15;27.52;;;;;;;-1.36;98.25;102535.03;5029174;28;20124;-76
2022/12/17 14:22:36;;;;;;;79.35;27.00;;;;;;;-1.39;98.18;102537.72;5027112;28;20038;-76
2022/12/17 14:25:03;;;;;;;85.43;27.00;;;;;;;-1.43;98.28;102538.59;5028583;28;20037;-76
2022/12/17 14:27:33;;;;;;;76.72;25.67;;;;;;;-1.46;98.24;102553.69;5026952;28;20022;-76
2022/12/17 14:30:00;;;;;;;78.53;25.60;;;;;;;-1.49;98.43;102546.56;5027519;28;20037;-76
2022/12/17 14:32:32;;;;;;;78.32;25.27;;;;;;;-1.53;98.10;102550.09;5028307;28;20303;-76
2022/12/17 14:34:58;;;;;;;70.38;23.55;;;;;;;-1.63;98.10;102545.63;5027000;28;20044;-76
2022/12/17 14:37:27;;;;;;;76.15;24.83;;;;;;;-1.67;98.63;102559.81;5028895;28;20033;-76
2022/12/17 14:39:59;;;;;;;77.57;25.55;;;;;;;-1.76;98.73;102551.75;5035856;28;20029;-76
2022/12/17 14:42:25;;;;;;;75.90;27.50;;;;;;;-1.79;98.58;102560.63;5039085;28;20033;-76
2022/12/17 14:44:53;;;;;;;71.28;25.25;;;;;;;-1.84;98.38;102557.03;5026889;28;20045;-76
2022/12/17 14:47:36;;;;;;;75.88;25.65;;;;;;;-1.85;98.88;102557.94;5028133;28;20480;-76
2022/12/17 14:50:04;;;;;;;72.63;25.60;;;;;;;-1.86;98.74;102566.81;5028224;28;20041;-76
2022/12/17 14:52:39;;;;;;;71.57;23.45;;;;;;;-1.88;98.51;102563.22;5028270;28;20069;-76
2022/12/17 14:55:26;;;;;;;69.63;22.33;;;;;;;-1.92;98.88;102564.09;5027999;28;20034;-76
2022/12/17 14:57:53;;;;;;;76.00;24.25;;;;;;;-1.96;98.66;102570.28;5026237;28;20037;-76
2022/12/17 15:00:19;;;;;;;70.95;24.02;;;;;;;-1.92;98.91;102569.41;5039486;28;20049;-77
2022/12/17 15:02:51;;;;;;;72.60;24.20;;;;;;;-1.97;98.61;102568.50;5036694;28;20037;-77
2022/12/17 15:05:16;;;;;;;74.15;24.70;;;;;;;-2.00;98.82;102565.84;5043203;28;20392;-76
2022/12/17 15:07:42;;;;;;;78.57;24.05;;;;;;;-2.04;98.72;102569.34;5046465;28;20037;-77
2022/12/17 15:10:15;;;;;;;66.65;22.20;;;;;;;-2.15;98.84;102570.13;5036353;28;20037;-76
2022/12/17 15:12:41;;;;;;;81.85;23.08;;;;;;;-2.22;99.42;102584.31;5042895;28;20033;-76
2022/12/17 15:15:10;;;;;;;92.20;25.63;;;;;;;-2.29;99.36;102581.56;5032870;28;20033;-77
2022/12/17 15:17:36;;;;;;;77.97;25.15;;;;;;;-2.31;99.81;102593.13;5025987;28;20497;-77
2022/12/17 15:20:02;;;;;;;88.63;25.95;;;;;;;-2.36;99.94;102591.31;5035744;28;20052;-77
2022/12/17 15:22:28;;;;;;;77.95;25.63;;;;;;;-2.44;100.00;102588.56;5036086;28;20041;-77
2022/12/17 15:24:53;;;;;;;79.95;23.80;;;;;;;-2.43;100.00;102602.78;5029892;28;20042;-77
2022/12/17 15:27:18;;;;;;;78.07;25.02;;;;;;;-2.44;100.00;102603.66;5025458;28;20028;-77
2022/12/17 15:29:44;;;;;;;76.75;26.35;;;;;;;-2.47;100.00;102607.19;5030837;28;20116;-77
2022/12/17 15:32:18;;;;;;;80.95;25.77;;;;;;;-2.43;100.00;102608.09;5040977;28;20041;-76
2022/12/17 15:34:44;;;;;;;82.47;25.23;;;;;;;-2.40;100.00;102610.81;5032116;28;20044;-77
2022/12/17 15:37:09;;;;;;;80.20;25.40;;;;;;;-2.45;100.00;102601.88;5045803;28;20774;-77
2022/12/17 15:39:34;;;;;;;80.18;25.23;;;;;;;-2.49;100.00;102608.94;5038897;28;20085;-77
2022/12/17 15:44:44;;;;;;;91.65;26.63;;;;;;;-2.51;100.00;102613.38;5031429;28;20679;-76
2022/12/17 15:47:09;;;;;;;78.30;23.52;;;;;;;-2.50;100.00;102611.59;5040212;28;20453;-77
2022/12/17 15:49:34;;;;;;;90.15;29.30;;;;;;;-2.51;100.00;102607.16;5039648;28;20421;-77
2022/12/17 15:52:00;;;;;;;95.30;28.30;;;;;;;-2.54;100.00;102617.78;5047309;28;20036;-77
2022/12/17 15:54:25;;;;;;;84.75;24.73;;;;;;;-2.66;100.00;102608.78;5047226;28;20035;-77
2022/12/17 15:56:52;;;;;;;98.90;28.73;;;;;;;-2.64;100.00;102617.69;5045640;28;20040;-77
2022/12/17 15:59:18;;;;;;;95.25;28.75;;;;;;;-2.65;100.00;102623.88;5018173;28;20435;-77
2022/12/17 16:01:43;;;;;;;92.85;27.65;;;;;;;-2.68;100.00;102609.63;5024366;28;20109;-77
2022/12/17 16:04:09;;;;;;;94.90;28.58;;;;;;;-2.61;100.00;102622.16;5027310;28;20037;-77
2022/12/17 16:06:34;;;;;;;92.88;27.88;;;;;;;-2.58;100.00;102627.50;5031225;28;20033;-77
2022/12/17 16:08:59;;;;;;;97.72;26.83;;;;;;;-2.59;100.00;102631.94;5078265;28;20031;-77
2022/12/17 16:11:25;;;;;;;86.07;26.92;;;;;;;-2.59;100.00;102631.03;5043375;28;20041;-76
2022/12/17 16:13:54;;;;;;;87.50;24.35;;;;;;;-2.58;100.00;102628.38;5062130;28;20068;-77
2022/12/17 16:16:20;;;;;;;94.22;27.23;;;;;;;-2.56;100.00;102625.75;5074912;28;20094;-77
2022/12/17 16:18:46;;;;;;;93.85;29.33;;;;;;;-2.53;100.00;102622.22;5029913;28;20045;-77
2022/12/17 16:21:11;;;;;;;94.13;27.85;;;;;;;-2.58;100.00;102617.72;5038658;28;20033;-77
2022/12/17 16:23:36;;;;;;;92.47;29.33;;;;;;;-2.64;100.00;102624.78;5046243;28;20033;-77
2022/12/17 16:26:05;;;;;;;93.68;27.45;;;;;;;-2.69;100.00;102618.50;5039709;28;20125;-77
2022/12/17 16:28:30;;;;;;;84.45;27.23;;;;;;;-2.74;100.00;102622.91;5029329;28;20037;-77
2022/12/17 16:31:07;;;;;;;88.68;28.27;;;;;;;-2.74;100.00;102634.44;5044903;28;20036;-77
2022/12/17 16:33:35;;;;;;;82.28;27.90;;;;;;;-2.74;100.00;102629.13;5029673;28;20113;-77
2022/12/17 16:36:00;;;;;;;92.95;26.13;;;;;;;-2.81;100.00;102629.91;5025585;28;20040;-77
2022/12/17 16:38:26;;;;;;;96.43;26.83;;;;;;;-2.91;100.00;102634.25;5026343;28;20025;-77
2022/12/17 16:40:57;;;;;;;76.10;23.88;;;;;;;-2.95;100.00;102631.53;5045980;28;20132;-77
2022/12/17 16:43:23;;;;;;;84.03;25.65;;;;;;;-2.94;100.00;102630.63;5042936;28;20540;-77
2022/12/17 16:45:50;;;;;;;88.35;26.23;;;;;;;-2.93;100.00;102629.78;5044530;28;20166;-77
2022/12/17 16:48:18;;;;;;;88.63;27.08;;;;;;;-2.91;100.00;102630.69;5041286;28;20088;-76
2022/12/17 16:50:44;;;;;;;81.32;25.67;;;;;;;-2.89;100.00;102636.91;5040618;28;20048;-76
2022/12/17 16:53:10;;;;;;;88.07;25.60;;;;;;;-2.89;100.00;102635.16;5028750;28;20426;-76
2022/12/17 16:55:43;;;;;;;91.95;26.80;;;;;;;-2.84;100.00;102635.22;5043726;28;20045;-76
2022/12/17 16:58:14;;;;;;;92.00;25.95;;;;;;;-2.85;100.00;102636.06;5032561;28;20507;-76
2022/12/17 17:00:39;;;;;;;84.38;25.65;;;;;;;-2.83;100.00;102637.00;5035297;28;20338;-76
2022/12/17 17:03:05;;;;;;;86.65;24.88;;;;;;;-2.80;100.00;102644.13;5033895;28;20052;-76
2022/12/17 17:05:33;;;;;;;90.45;26.50;;;;;;;-2.79;100.00;102640.59;5048292;28;20123;-76
2022/12/17 17:07:59;;;;;;;96.07;25.70;;;;;;;-2.79;100.00;102633.50;5016660;28;20114;-76
2022/12/17 17:10:24;;;;;;;91.70;25.27;;;;;;;-2.77;100.00;102637.06;5040456;28;20120;-76
2022/12/17 17:12:51;;;;;;;86.50;25.95;;;;;;;-2.79;100.00;102630.84;5033201;28;20056;-76
2022/12/17 17:15:17;;;;;;;103.13;28.60;;;;;;;-2.77;100.00;102641.50;5034861;28;20029;-76
2022/12/17 17:17:42;;;;;;;92.22;28.85;;;;;;;-2.82;100.00;102633.44;5035753;28;21537;-75
2022/12/17 17:20:08;;;;;;;92.53;26.00;;;;;;;-2.79;100.00;102641.50;5034732;28;20037;-76
2022/12/17 17:22:34;;;;;;;96.53;29.10;;;;;;;-2.81;100.00;102648.56;5046736;28;20516;-76
2022/12/17 17:24:59;;;;;;;87.03;25.67;;;;;;;-2.87;100.00;102651.16;5031658;28;20028;-76
2022/12/17 17:27:24;;;;;;;95.75;28.15;;;;;;;-2.94;100.00;102647.53;5031794;28;20080;-76
2022/12/17 17:29:50;;;;;;;84.10;25.80;;;;;;;-2.94;100.00;102646.59;5033601;28;20366;-76
2022/12/17 17:32:15;;;;;;;95.93;27.55;;;;;;;-2.95;100.00;102653.72;5037976;28;20049;-75
2022/12/17 17:34:41;;;;;;;96.93;25.70;;;;;;;-2.98;100.00;102651.03;5028867;28;20021;-75
2022/12/17 17:37:06;;;;;;;87.18;26.45;;;;;;;-3.05;100.00;102654.47;5033148;28;20064;-76
2022/12/17 17:39:33;;;;;;;100.75;29.13;;;;;;;-3.11;100.00;102651.75;5039155;28;20134;-76
2022/12/17 17:41:59;;;;;;;93.13;26.98;;;;;;;-3.12;100.00;102658.84;5037662;28;20686;-75
2022/12/17 17:44:24;;;;;;;83.35;26.52;;;;;;;-3.14;100.00;102667.66;5046668;28;20029;-76
2022/12/17 17:46:49;;;;;;;97.45;28.90;;;;;;;-3.16;100.00;102666.75;5042692;28;20037;-75
2022/12/17 17:49:15;;;;;;;89.82;26.77;;;;;;;-3.16;100.00;102672.09;5038789;28;20526;-75
2022/12/17 17:51:42;;;;;;;88.07;27.50;;;;;;;-3.15;100.00;102663.22;5036888;28;20041;-75
2022/12/17 17:54:08;;;;;;;101.95;28.75;;;;;;;-3.15;100.00;102660.56;5034861;28;20070;-75
2022/12/17 17:56:37;;;;;;;85.30;26.27;;;;;;;-3.14;100.00;102657.00;5037757;28;20040;-75
2022/12/17 17:59:18;;;;;;;99.40;27.52;;;;;;;-3.11;100.00;102663.28;5035804;28;20581;-75
2022/12/17 18:01:48;;;;;;;89.88;29.33;;;;;;;-3.09;100.00;102661.53;5044181;28;20065;-75
2022/12/17 18:04:20;;;;;;;93.53;26.63;;;;;;;-3.09;100.00;102655.31;5029482;28;20046;-75
2022/12/17 18:06:47;;;;;;;89.05;24.48;;;;;;;-3.09;100.00;102656.19;5038841;28;20086;-75
2022/12/17 18:09:13;;;;;;;85.40;26.15;;;;;;;-3.02;100.00;102661.63;5043878;28;20129;-75
2022/12/17 18:11:40;;;;;;;89.93;26.63;;;;;;;-3.02;100.00;102673.16;5047052;28;20124;-75
2022/12/17 18:14:08;;;;;;;91.72;27.25;;;;;;;-3.03;100.00;102666.06;5034640;28;20042;-75
2022/12/17 18:16:38;;;;;;;84.05;28.90;;;;;;;-3.05;100.00;102661.56;5046141;28;20121;-75
2022/12/17 18:19:10;;;;;;;86.25;25.40;;;;;;;-3.08;100.00;102663.34;5064607;28;20048;-74
2022/12/17 18:21:37;;;;;;;88.40;25.38;;;;;;;-3.08;100.00;102673.06;5014976;28;20029;-74
2022/12/17 18:24:22;;;;;;;93.85;27.92;;;;;;;-3.08;100.00;102667.72;5027861;28;20033;-74
2022/12/17 18:26:49;;;;;;;85.65;25.85;;;;;;;-3.13;100.00;102678.31;5031594;28;20041;-75
2022/12/17 18:29:21;;;;;;;78.28;24.05;;;;;;;-3.13;100.00;102672.09;5031425;28;20049;-75
2022/12/17 18:31:46;;;;;;;90.70;27.88;;;;;;;-3.14;100.00;102668.56;5034070;28;20091;-74
2022/12/17 18:34:13;;;;;;;90.78;27.23;;;;;;;-3.14;100.00;102665.00;5035030;28;20053;-74
2022/12/17 18:36:40;;;;;;;95.82;27.02;;;;;;;-3.18;100.00;102666.72;5030369;28;20032;-74
2022/12/17 18:39:09;;;;;;;85.78;26.65;;;;;;;-3.26;100.00;102675.50;5037308;28;20098;-75
2022/12/17 18:44:19;;;;;;;92.53;28.17;;;;;;;-3.49;100.00;102665.41;5036048;28;20029;-74
2022/12/17 18:46:45;;;;;;;87.50;26.80;;;;;;;-3.48;100.00;102668.97;5033115;28;20084;-75
2022/12/17 18:49:12;;;;;;;90.72;27.25;;;;;;;-3.51;100.00;102672.47;5042943;28;20384;-74
2022/12/17 18:51:41;;;;;;;86.72;27.27;;;;;;;-3.55;100.00;102659.97;5043847;28;20052;-75
2022/12/17 18:54:11;;;;;;;68.60;22.95;;;;;;;-3.58;100.00;102667.94;5039602;28;20095;-76
2022/12/17 18:56:37;;;;;;;85.40;25.52;;;;;;;-3.66;100.00;102665.16;5025862;28;20049;-74
2022/12/17 18:59:02;;;;;;;81.35;25.77;;;;;;;-3.74;100.00;102669.44;5039899;28;20392;-75
2022/12/17 19:01:31;;;;;;;81.15;25.23;;;;;;;-3.75;100.00;102677.41;5047076;28;20461;-75
2022/12/17 19:03:56;;;;;;;77.65;26.13;;;;;;;-3.77;100.00;102684.47;5026018;28;20592;-77
2022/12/17 19:06:23;;;;;;;74.05;24.13;;;;;;;-3.79;100.00;102678.22;5031809;28;20040;-75
2022/12/17 19:08:50;;;;;;;79.97;24.65;;;;;;;-3.80;100.00;102684.41;5041801;28;20036;-75
2022/12/17 19:11:20;;;;;;;82.70;25.85;;;;;;;-3.80;100.00;102685.31;5042915;28;20037;-75
2022/12/17 19:13:47;;;;;;;73.38;26.95;;;;;;;-3.83;100.00;102684.34;5029073;28;20042;-74
2022/12/17 19:16:16;;;;;;;73.07;21.63;;;;;;;-3.87;100.00;102684.34;5040177;28;20520;-74
2022/12/17 19:18:42;;;;;;;80.75;25.83;;;;;;;-3.83;100.00;102692.34;5026495;28;20497;-75
2022/12/17 19:21:12;;;;;;;64.85;22.20;;;;;;;-3.78;100.00;102698.63;5032146;28;20121;-76
2022/12/17 19:23:37;;;;;;;83.93;24.00;;;;;;;-3.81;100.00;102701.25;5029272;28;20045;-75
2022/12/17 19:26:05;;;;;;;83.78;24.65;;;;;;;-3.86;100.00;102701.19;5029764;28;20021;-76
2022/12/17 19:28:31;;;;;;;78.03;25.13;;;;;;;-3.88;100.00;102701.13;5032345;28;20053;-75
2022/12/17 19:30:56;;;;;;;74.47;24.48;;;;;;;-3.91;100.00;102702.88;5027008;28;20040;-75
2022/12/17 19:33:22;;;;;;;76.80;24.02;;;;;;;-3.95;100.00;102696.59;5026617;28;20435;-75
2022/12/17 19:35:47;;;;;;;68.38;22.88;;;;;;;-3.95;100.00;102711.66;5028467;28;20033;-74
2022/12/17 19:38:13;;;;;;;78.50;24.27;;;;;;;-3.98;100.00;102711.59;5031396;28;20511;-74
2022/12/17 19:40:38;;;;;;;78.93;26.55;;;;;;;-3.98;100.00;102712.47;5033549;28;20082;-76
2022/12/17 19:43:05;;;;;;;71.97;25.58;;;;;;;-4.00;100.00;102713.34;5034722;28;20024;-75
2022/12/17 19:45:30;;;;;;;81.35;23.50;;;;;;;-3.98;100.00;102712.47;5029143;28;20045;-75
2022/12/17 19:47:56;;;;;;;73.90;23.67;;;;;;;-3.93;100.00;102699.25;5035634;28;20033;-75
2022/12/17 19:50:21;;;;;;;87.55;24.80;;;;;;;-3.89;100.00;102709.09;5030293;28;20132;-75
2022/12/17 19:52:46;;;;;;;82.47;25.17;;;;;;;-3.87;100.00;102697.63;5033749;28;20088;-74
2022/12/17 19:55:14;;;;;;;85.45;27.38;;;;;;;-3.85;100.00;102702.97;5033797;28;20469;-75
2022/12/17 19:57:39;;;;;;;84.10;23.95;;;;;;;-3.86;100.00;102712.69;5034402;28;20115;-74
2022/12/17 20:00:05;;;;;;;84.75;27.02;;;;;;;-3.87;100.00;102712.66;5070100;28;20051;-75
2022/12/17 20:02:38;;;;;;;82.63;26.52;;;;;;;-3.93;100.00;102713.44;5026484;28;20033;-75
2022/12/17 20:05:04;;;;;;;90.15;27.00;;;;;;;-3.94;100.00;102713.44;5027626;28;20460;-76
2022/12/17 20:07:29;;;;;;;78.72;22.35;;;;;;;-3.91;100.00;102726.78;5029200;28;20021;-75
2022/12/17 20:09:54;;;;;;;86.13;24.83;;;;;;;-3.93;100.00;102731.16;5033367;28;20239;-77
2022/12/17 20:12:20;;;;;;;79.53;24.25;;;;;;;-3.98;100.00;102728.44;5032780;28;20072;-75
2022/12/17 20:14:45;;;;;;;81.40;22.65;;;;;;;-4.00;100.00;102737.25;5025890;28;20728;-75
2022/12/17 20:17:11;;;;;;;74.95;23.92;;;;;;;-4.03;100.00;102730.09;5028977;28;20123;-75
2022/12/17 20:19:36;;;;;;;75.13;23.50;;;;;;;-4.08;100.00;102723.81;5024363;28;20052;-75
2022/12/17 20:22:03;;;;;;;80.68;23.45;;;;;;;-4.03;100.00;102732.75;5041524;28;20117;-75
2022/12/17 20:24:29;;;;;;;70.13;23.27;;;;;;;-4.05;100.00;102739.84;5011418;28;20041;-74
2022/12/17 20:26:55;;;;;;;64.50;24.63;;;;;;;-4.04;100.00;102746.94;5032254;28;20043;-75
2022/12/17 20:29:22;;;;;;;66.20;22.63;;;;;;;-4.08;100.00;102742.41;5027514;28;20499;-74
2022/12/17 20:31:49;;;;;;;74.50;23.55;;;;;;;-4.11;100.00;102742.34;5034238;28;20432;-74
2022/12/17 20:34:17;;;;;;;69.28;22.70;;;;;;;-4.15;100.00;102733.47;5033446;28;20029;-74
2022/12/17 20:36:42;;;;;;;69.32;23.52;;;;;;;-4.12;100.00;102733.50;5036482;28;20477;-75
2022/12/17 20:39:09;;;;;;;68.90;24.08;;;;;;;-4.12;100.00;102724.63;5036445;28;20104;-75
2022/12/17 20:41:35;;;;;;;79.07;25.30;;;;;;;-4.16;100.00;102728.97;5048041;28;20064;-75
2022/12/17 20:44:06;;;;;;;74.22;24.00;;;;;;;-4.19;100.00;102731.59;5040428;28;20064;-74
2022/12/17 20:46:33;;;;;;;59.60;21.58;;;;;;;-4.21;100.00;102727.13;5045209;28;20457;-76
2022/12/17 20:48:59;;;;;;;66.85;22.55;;;;;;;-4.18;100.00;102725.41;5047126;28;20540;-74
2022/12/17 20:51:26;;;;;;;67.75;21.92;;;;;;;-4.14;100.00;102729.03;5036489;28;20117;-75
2022/12/17 20:53:54;;;;;;;69.90;22.33;;;;;;;-4.18;100.00;102717.44;5043709;28;20029;-75
2022/12/17 20:56:27;;;;;;;56.15;22.20;;;;;;;-4.20;100.00;102718.28;5038529;28;20041;-74
2022/12/17 20:59:01;;;;;;;69.28;21.20;;;;;;;-4.25;100.00;102718.19;5036051;28;20117;-75
2022/12/17 21:01:28;;;;;;;75.25;22.85;;;;;;;-4.27;100.00;102711.06;5044088;28;20079;-74
2022/12/17 21:03:55;;;;;;;60.50;21.35;;;;;;;-4.23;100.00;102723.53;5039518;28;20036;-74
2022/12/17 21:06:26;;;;;;;66.60;21.50;;;;;;;-4.27;100.00;102716.38;5027741;28;20042;-75
2022/12/17 21:08:53;;;;;;;61.63;20.90;;;;;;;-4.22;100.00;102734.19;5041164;28;20034;-75
2022/12/17 21:11:23;;;;;;;57.67;21.83;;;;;;;-4.19;100.00;102736.91;5042240;28;20128;-75
2022/12/17 21:13:48;;;;;;;61.65;22.20;;;;;;;-4.19;100.00;102734.25;5038677;28;20421;-74
2022/12/17 21:16:26;;;;;;;73.72;23.60;;;;;;;-4.20;100.00;102718.28;5046148;28;20585;-75
2022/12/17 21:18:53;;;;;;;63.90;21.30;;;;;;;-4.18;100.00;102717.44;5043225;28;20095;-74
2022/12/17 21:21:21;;;;;;;67.68;24.70;;;;;;;-4.22;100.00;102715.59;5045739;28;20618;-75
2022/12/17 21:23:48;;;;;;;66.25;22.40;;;;;;;-4.22;100.00;102720.91;5040454;28;20041;-74
2022/12/17 21:26:18;;;;;;;59.80;21.95;;;;;;;-4.25;100.00;102722.59;5039628;28;20045;-74
2022/12/17 21:28:45;;;;;;;72.32;22.15;;;;;;;-4.23;100.00;102736.84;5031132;28;20134;-75
2022/12/17 21:31:15;;;;;;;62.88;21.17;;;;;;;-4.29;100.00;102736.69;5027264;28;20449;-74
2022/12/17 21:33:40;;;;;;;62.85;21.67;;;;;;;-4.34;100.00;102733.06;5037184;28;20040;-74
2022/12/17 21:36:06;;;;;;;58.88;20.80;;;;;;;-4.38;100.00;102729.47;5041726;28;20049;-74
2022/12/17 21:38:31;;;;;;;64.90;22.67;;;;;;;-4.37;100.00;102733.91;5031410;28;20037;-74
2022/12/17 21:41:06;;;;;;;50.95;20.60;;;;;;;-4.40;100.00;102745.34;5034534;28;20395;-75
2022/12/17 21:43:33;;;;;;;62.90;21.75;;;;;;;-4.41;100.00;102737.38;5030642;28;20477;-74
2022/12/17 21:45:58;;;;;;;63.80;22.30;;;;;;;-4.43;100.00;102732.03;5030474;28;20132;-75
2022/12/17 21:48:24;;;;;;;64.88;22.25;;;;;;;-4.50;100.00;102729.22;5039348;28;20361;-75
2022/12/17 21:50:50;;;;;;;55.63;18.52;;;;;;;-4.43;100.00;102747.06;5021249;28;20087;-75
2022/12/17 21:53:15;;;;;;;53.85;19.25;;;;;;;-4.44;100.00;102745.25;5036242;28;20091;-74
2022/12/17 21:55:41;;;;;;;60.10;21.15;;;;;;;-4.47;100.00;102735.50;5031477;28;20099;-75
2022/12/17 21:58:07;;;;;;;63.25;21.23;;;;;;;-4.51;100.00;102738.94;5031435;28;20033;-74
2022/12/17 22:00:33;;;;;;;66.00;23.65;;;;;;;-4.52;100.00;102745.13;5029117;28;20033;-74
2022/12/17 22:02:59;;;;;;;56.45;21.83;;;;;;;-4.55;100.00;102750.38;5031398;28;20037;-74
2022/12/17 22:05:24;;;;;;;64.57;22.95;;;;;;;-4.57;100.00;102754.78;5033564;28;20056;-74
2022/12/17 22:07:49;;;;;;;57.80;22.52;;;;;;;-4.57;100.00;102759.16;5036013;28;20048;-74
2022/12/17 22:10:15;;;;;;;64.60;22.23;;;;;;;-4.58;100.00;102760.91;5031671;28;20127;-74
2022/12/17 22:15:24;;;;;;;72.53;22.95;;;;;;;-4.61;100.00;102771.50;5034404;28;20033;-74
2022/12/17 22:17:52;;;;;;;66.63;21.23;;;;;;;-4.66;100.00;102762.53;5037241;28;20049;-74
2022/12/17 22:20:17;;;;;;;75.70;24.90;;;;;;;-4.63;100.00;102775.88;5046365;28;20483;-74
2022/12/17 22:22:44;;;;;;;69.47;23.05;;;;;;;-4.63;100.00;102782.06;5042123;28;20087;-74
2022/12/17 22:25:10;;;;;;;62.95;22.70;;;;;;;-4.63;100.00;102774.09;5042433;28;20029;-74
2022/12/17 22:27:36;;;;;;;57.50;22.50;;;;;;;-4.63;100.00;102781.19;5029523;28;20053;-74
2022/12/17 22:33:01;;;;;;;67.43;20.92;;;;;;;-4.67;100.00;102780.19;5029032;28;20041;-74
2022/12/17 22:35:38;;;;;;;67.28;24.80;;;;;;;-4.67;100.00;102785.50;5039948;28;20212;-74
2022/12/17 22:38:05;;;;;;;65.53;22.25;;;;;;;-4.67;100.00;102779.31;5037414;28;20056;-73
2022/12/17 22:40:37;;;;;;;67.25;23.90;;;;;;;-4.70;100.00;102773.97;5038275;28;20044;-74
2022/12/17 22:45:47;;;;;;;64.88;21.88;;;;;;;-4.78;100.00;102767.59;5045114;28;20037;-74
2022/12/17 22:48:13;;;;;;;69.10;21.70;;;;;;;-4.83;100.00;102758.63;5033101;28;20040;-74
2022/12/17 22:50:40;;;;;;;59.63;21.63;;;;;;;-4.89;100.00;102757.63;5027743;28;20025;-74
2022/12/17 22:53:05;;;;;;;64.15;21.77;;;;;;;-4.95;100.00;102757.47;5026530;28;20128;-74
2022/12/17 22:55:31;;;;;;;63.33;22.15;;;;;;;-5.01;100.00;102757.34;5027921;28;20120;-74
2022/12/17 22:57:57;;;;;;;61.47;22.73;;;;;;;-5.08;100.00;102768.72;5027340;28;20044;-74
2022/12/17 23:00:28;;;;;;;66.72;24.00;;;;;;;-5.15;100.00;102775.59;5026431;28;20401;-74
2022/12/17 23:02:53;;;;;;;63.38;21.63;;;;;;;-5.21;100.00;102769.28;5036403;28;20040;-74
2022/12/17 23:05:24;;;;;;;55.97;21.88;;;;;;;-5.25;100.00;102768.31;5046991;28;20546;-74
2022/12/17 23:07:50;;;;;;;65.72;21.55;;;;;;;-5.31;100.00;102772.59;5048166;28;20127;-74
2022/12/17 23:10:17;;;;;;;59.45;20.98;;;;;;;-5.35;100.00;102763.66;5046276;28;20127;-74
2022/12/17 23:12:54;;;;;;;62.20;21.83;;;;;;;-5.40;100.00;102752.94;5040838;28;20523;-74
2022/12/17 23:15:29;;;;;;;58.47;19.85;;;;;;;-5.43;100.00;102749.31;5034044;28;20041;-74
2022/12/17 23:17:57;;;;;;;58.20;21.05;;;;;;;-5.48;100.00;102740.34;5027203;28;20044;-73
2022/12/17 23:20:23;;;;;;;60.85;22.02;;;;;;;-5.53;100.00;102740.22;5028084;28;20029;-73
2022/12/17 23:22:48;;;;;;;60.72;22.15;;;;;;;-5.57;100.00;102734.81;5027599;28;20448;-73
2022/12/17 23:25:16;;;;;;;58.40;20.27;;;;;;;-5.56;100.00;102736.59;5027663;28;20088;-74
2022/12/17 23:27:42;;;;;;;60.63;22.10;;;;;;;-5.63;100.00;102727.63;5027315;28;20485;-73
2022/12/17 23:30:09;;;;;;;67.85;22.25;;;;;;;-5.63;100.00;102740.88;5026278;28;20440;-73
2022/12/17 23:32:34;;;;;;;65.35;19.85;;;;;;;-5.67;100.00;102744.31;5026488;28;20064;-73
2022/12/17 23:35:00;;;;;;;60.83;21.65;;;;;;;-5.71;100.00;102747.72;5038922;28;20436;-73
2022/12/17 23:37:25;;;;;;;60.13;20.35;;;;;;;-5.77;100.00;102753.78;5047279;28;20037;-73
2022/12/17 23:39:51;;;;;;;68.70;21.27;;;;;;;-5.82;100.00;102744.81;5044147;28;20310;-73
2022/12/17 23:42:16;;;;;;;56.47;20.13;;;;;;;-5.84;100.00;102750.94;5045458;28;20033;-73
2022/12/17 23:44:41;;;;;;;49.53;19.80;;;;;;;-5.91;100.00;102744.59;5037405;28;20032;-73
2022/12/17 23:47:07;;;;;;;52.75;19.98;;;;;;;-5.92;100.00;102748.13;5042517;28;20033;-73
2022/12/17 23:49:32;;;;;;;63.80;21.67;;;;;;;-5.97;100.00;102739.13;5027122;28;20080;-73
2022/12/17 23:51:57;;;;;;;59.08;19.13;;;;;;;-6.02;100.00;102744.31;5028136;28;20469;-73
2022/12/17 23:54:23;;;;;;;55.60;19.27;;;;;;;-6.07;100.00;102755.66;5046234;28;20587;-73
2022/12/17 23:56:49;;;;;;;52.58;20.20;;;;;;;-6.13;100.00;102759.03;5046674;28;20071;-74
2022/12/17 23:59:14;;;;;;;58.17;20.40;;;;;;;-6.13;99.97;102769.63;5029870;28;20041;-73
